Everson, Washington
Current Conditions -  °F | °C
As of 1:00 AM on Monday 20 Oct 2014 (Local Time) from CYXX Reporting Station
Heavy Rain Heavy Rain  
Wind Chill: 59°   Ceiling: 3000
Heat Index: 59°   Visibility: 15mi
Dew Point: 57°   Wind: 10mph
Humidity: 94%   Direction: 240°WSW
Pressure: 29.68"   Gusts: NA
Location:  48.92°N, 122.34°W
Report Text: CYXX 200800Z 24009KT 15SM +RA OVC030 15/14 A2968 RMK NS8 SLP051 DENSITY ALT 400FT
Loading
Personal Weather Stations






























Interactive Weather Map
Tropical Storm Tracking
New forecast layout! Learn more

10-Day Weather Forecast

Advertisements
Track Severe Weather on mobile